LOWI/INN METAR and TAF weather

Enter ICAO airport designator
Station Type Date Time Source
LOWI METAR 2019/10/15 03:20 UTC NOAA

LOWI 150320Z AUTO VRB06KT 9999 NSC 08/06 Q1014


Station Type Date Time Source
LOWI Decoded METAR 2019/10/15 03:20 UTC NOAA

Innsbruck-Flughafen, Austria (LOWI) 47-16N 011-21E 593M
Oct 14, 2019 - 11:20 PM EDT / 2019.10.15 0320 UTC
Wind: Variable at 7 MPH (6 KT):0
Visibility: greater than 7 mile(s):0
Temperature: 46 F (8 C)
Dew Point: 42 F (6 C)
Relative Humidity: 87%
Pressure (altimeter): 29.94 in. Hg (1014 hPa)
ob: LOWI 150320Z AUTO VRB06KT 9999 NSC 08/06 Q1014
cycle: 3

Station Type Date Time Source
LOWI TAF 2019/10/15 03:45 UTC NOAA

TAF TAF
AMD LOWI 150339Z 1503/1524 27008KT CAVOK TX24/1514Z TN09/1503Z
BECMG 1508/1510 11012G25KT 9999 FEW070 SCT150 BKN300
TEMPO 1509/1519 14015G35KT
BECMG 1520/1522 27007KT -RA SCT040 BKN060
TEMPO 1521/1524 27012G25KT RA

Example: see airport list